sensor_id;sensor_type;location;lat;lon;timestamp;pressure;altitude;pressure_sealevel;temperature;humidity
35226;BME280;21813;49.686;21.766;2022-08-04T00:00:11;98727.13;;;16.48;95.44
35226;BME280;21813;49.686;21.766;2022-08-04T00:03:07;98738.56;;;16.56;95.58
35226;BME280;21813;49.686;21.766;2022-08-04T00:10:48;98721.56;;;16.33;96.02
35226;BME280;21813;49.686;21.766;2022-08-04T00:13:21;98716.47;;;16.31;96.19
35226;BME280;21813;49.686;21.766;2022-08-04T00:15:58;98724.06;;;16.34;96.47
35226;BME280;21813;49.686;21.766;2022-08-04T00:18:33;98739.09;;;16.42;95.90
35226;BME280;21813;49.686;21.766;2022-08-04T00:21:04;98720.38;;;16.27;95.83
35226;BME280;21813;49.686;21.766;2022-08-04T00:23:31;98737.22;;;16.34;95.80
35226;BME280;21813;49.686;21.766;2022-08-04T00:25:59;98742.63;;;16.33;95.85
35226;BME280;21813;49.686;21.766;2022-08-04T00:28:26;98734.50;;;16.26;95.70
35226;BME280;21813;49.686;21.766;2022-08-04T00:30:53;98720.91;;;16.13;95.89
35226;BME280;21813;49.686;21.766;2022-08-04T00:33:19;98731.13;;;16.16;95.89
35226;BME280;21813;49.686;21.766;2022-08-04T00:35:49;98751.56;;;16.22;95.91
35226;BME280;21813;49.686;21.766;2022-08-04T00:38:18;98723.41;;;16.05;96.03
35226;BME280;21813;49.686;21.766;2022-08-04T00:45:58;98748.09;;;16.04;96.60
35226;BME280;21813;49.686;21.766;2022-08-04T00:54:25;98712.84;;;15.70;96.48
35226;BME280;21813;49.686;21.766;2022-08-04T00:59:54;98736.06;;;15.74;97.30
35226;BME280;21813;49.686;21.766;2022-08-04T01:06:22;98742.81;;;15.77;97.37
35226;BME280;21813;49.686;21.766;2022-08-04T01:09:04;98717.91;;;15.54;97.24
35226;BME280;21813;49.686;21.766;2022-08-04T01:15:24;98740.44;;;15.56;97.39
35226;BME280;21813;49.686;21.766;2022-08-04T01:18:01;98732.41;;;15.48;97.62
35226;BME280;21813;49.686;21.766;2022-08-04T01:20:41;98723.97;;;15.44;97.67
35226;BME280;21813;49.686;21.766;2022-08-04T01:29:12;98756.09;;;15.38;97.75
35226;BME280;21813;49.686;21.766;2022-08-04T01:32:03;98753.59;;;15.37;97.83
35226;BME280;21813;49.686;21.766;2022-08-04T01:34:33;98752.66;;;15.28;97.87
35226;BME280;21813;49.686;21.766;2022-08-04T01:37:14;98746.72;;;15.17;98.01
35226;BME280;21813;49.686;21.766;2022-08-04T01:39:59;98738.34;;;15.03;98.44
35226;BME280;21813;49.686;21.766;2022-08-04T01:45:04;98740.72;;;14.97;98.78
35226;BME280;21813;49.686;21.766;2022-08-04T01:47:34;98717.53;;;14.83;99.12
35226;BME280;21813;49.686;21.766;2022-08-04T01:50:06;98740.97;;;14.94;99.22
35226;BME280;21813;49.686;21.766;2022-08-04T01:52:35;98753.25;;;15.03;99.32
35226;BME280;21813;49.686;21.766;2022-08-04T01:55:12;98743.06;;;15.00;99.18
35226;BME280;21813;49.686;21.766;2022-08-04T01:57:46;98731.59;;;14.91;99.39
35226;BME280;21813;49.686;21.766;2022-08-04T02:11:35;98736.31;;;14.88;99.57
35226;BME280;21813;49.686;21.766;2022-08-04T02:14:15;98736.97;;;14.90;99.66
35226;BME280;21813;49.686;21.766;2022-08-04T02:17:07;98737.28;;;14.87;99.82
35226;BME280;21813;49.686;21.766;2022-08-04T02:19:54;98713.25;;;14.72;99.57
35226;BME280;21813;49.686;21.766;2022-08-04T02:22:26;98715.63;;;14.66;99.61
35226;BME280;21813;49.686;21.766;2022-08-04T02:25:09;98719.22;;;14.65;99.81
35226;BME280;21813;49.686;21.766;2022-08-04T02:30:39;98718.91;;;14.68;100.00
35226;BME280;21813;49.686;21.766;2022-08-04T02:33:09;98698.50;;;14.52;100.00
35226;BME280;21813;49.686;21.766;2022-08-04T02:35:39;98699.31;;;14.52;100.00
35226;BME280;21813;49.686;21.766;2022-08-04T02:38:26;98717.84;;;14.61;100.00
35226;BME280;21813;49.686;21.766;2022-08-04T02:40:57;98698.66;;;14.50;100.00
35226;BME280;21813;49.686;21.766;2022-08-04T02:43:25;98703.72;;;14.52;100.00
35226;BME280;21813;49.686;21.766;2022-08-04T02:45:55;98724.72;;;14.62;100.00
35226;BME280;21813;49.686;21.766;2022-08-04T02:48:25;98720.03;;;14.55;100.00
35226;BME280;21813;49.686;21.766;2022-08-04T02:50:53;98708.59;;;14.47;100.00
35226;BME280;21813;49.686;21.766;2022-08-04T02:53:21;98704.31;;;14.46;100.00
35226;BME280;21813;49.686;21.766;2022-08-04T02:55:50;98696.53;;;14.35;100.00
35226;BME280;21813;49.686;21.766;2022-08-04T02:58:19;98712.59;;;14.41;100.00
35226;BME280;21813;49.686;21.766;2022-08-04T03:00:45;98713.97;;;14.45;100.00
35226;BME280;21813;49.686;21.766;2022-08-04T03:03:35;98709.25;;;14.39;100.00
35226;BME280;21813;49.686;21.766;2022-08-04T03:54:20;98727.09;;;13.77;100.00
35226;BME280;21813;49.686;21.766;2022-08-04T03:57:29;98742.00;;;13.86;100.00
35226;BME280;21813;49.686;21.766;2022-08-04T04:22:28;98763.69;;;14.07;100.00
35226;BME280;21813;49.686;21.766;2022-08-04T04:25:33;98764.13;;;14.12;100.00
35226;BME280;21813;49.686;21.766;2022-08-04T04:36:10;98765.53;;;14.35;100.00
35226;BME280;21813;49.686;21.766;2022-08-04T04:38:55;98766.97;;;14.39;100.00
35226;BME280;21813;49.686;21.766;2022-08-04T04:47:21;98769.47;;;14.70;100.00
35226;BME280;21813;49.686;21.766;2022-08-04T04:50:13;98760.34;;;14.74;100.00
35226;BME280;21813;49.686;21.766;2022-08-04T04:52:49;98780.94;;;14.88;100.00
35226;BME280;21813;49.686;21.766;2022-08-04T04:55:26;98769.06;;;14.93;100.00
35226;BME280;21813;49.686;21.766;2022-08-04T04:57:57;98744.59;;;14.93;100.00
35226;BME280;21813;49.686;21.766;2022-08-04T05:15:38;98756.91;;;15.48;99.72
35226;BME280;21813;49.686;21.766;2022-08-04T05:18:06;98758.53;;;15.59;99.04
35226;BME280;21813;49.686;21.766;2022-08-04T05:20:40;98769.00;;;15.69;99.04
35226;BME280;21813;49.686;21.766;2022-08-04T05:23:14;98785.97;;;15.84;98.52
35226;BME280;21813;49.686;21.766;2022-08-04T05:26:09;98786.75;;;15.94;98.09
35226;BME280;21813;49.686;21.766;2022-08-04T05:28:40;98783.47;;;16.10;97.58
35226;BME280;21813;49.686;21.766;2022-08-04T05:31:13;98779.81;;;16.20;95.53
35226;BME280;21813;49.686;21.766;2022-08-04T05:33:59;98760.75;;;16.36;94.96
35226;BME280;21813;49.686;21.766;2022-08-04T05:36:35;98788.31;;;16.59;94.27
35226;BME280;21813;49.686;21.766;2022-08-04T05:39:02;98796.28;;;16.67;93.79
35226;BME280;21813;49.686;21.766;2022-08-04T05:41:32;98775.97;;;16.60;93.74
35226;BME280;21813;49.686;21.766;2022-08-04T05:44:00;98779.50;;;16.68;93.00
35226;BME280;21813;49.686;21.766;2022-08-04T05:46:27;98790.63;;;16.80;93.32
35226;BME280;21813;49.686;21.766;2022-08-04T05:48:54;98769.94;;;16.85;92.83
35226;BME280;21813;49.686;21.766;2022-08-04T05:51:22;98780.72;;;17.17;91.91
35226;BME280;21813;49.686;21.766;2022-08-04T05:53:49;98777.53;;;17.32;90.88
35226;BME280;21813;49.686;21.766;2022-08-04T05:56:33;98790.69;;;17.57;88.20
35226;BME280;21813;49.686;21.766;2022-08-04T05:59:07;98767.97;;;17.56;86.61
35226;BME280;21813;49.686;21.766;2022-08-04T06:01:35;98767.28;;;17.80;87.15
35226;BME280;21813;49.686;21.766;2022-08-04T06:04:03;98754.06;;;17.72;86.84
35226;BME280;21813;49.686;21.766;2022-08-04T06:06:32;98756.03;;;17.70;86.37
35226;BME280;21813;49.686;21.766;2022-08-04T06:08:59;98780.19;;;17.91;87.50
35226;BME280;21813;49.686;21.766;2022-08-04T06:11:26;98775.59;;;18.01;87.00
35226;BME280;21813;49.686;21.766;2022-08-04T06:13:58;98781.88;;;18.08;86.68
35226;BME280;21813;49.686;21.766;2022-08-04T06:16:35;98765.38;;;17.98;86.33
35226;BME280;21813;49.686;21.766;2022-08-04T06:19:13;98770.06;;;18.13;86.69
35226;BME280;21813;49.686;21.766;2022-08-04T06:21:43;98781.59;;;18.20;85.82
35226;BME280;21813;49.686;21.766;2022-08-04T06:24:12;98776.69;;;18.25;85.51
35226;BME280;21813;49.686;21.766;2022-08-04T06:26:42;98771.56;;;18.31;85.36
35226;BME280;21813;49.686;21.766;2022-08-04T06:29:33;98764.16;;;18.35;85.20
35226;BME280;21813;49.686;21.766;2022-08-04T06:32:23;98784.03;;;18.55;85.10
35226;BME280;21813;49.686;21.766;2022-08-04T06:34:57;98765.50;;;18.47;84.38
35226;BME280;21813;49.686;21.766;2022-08-04T06:37:25;98758.44;;;18.56;83.78
35226;BME280;21813;49.686;21.766;2022-08-04T06:39:52;98775.16;;;18.80;83.28
35226;BME280;21813;49.686;21.766;2022-08-04T06:42:21;98766.56;;;18.86;82.50
35226;BME280;21813;49.686;21.766;2022-08-04T06:44:57;98786.03;;;19.18;81.31
35226;BME280;21813;49.686;21.766;2022-08-04T06:47:29;98774.47;;;19.27;80.30
35226;BME280;21813;49.686;21.766;2022-08-04T06:50:07;98780.88;;;19.57;79.54
35226;BME280;21813;49.686;21.766;2022-08-04T07:01:52;98777.59;;;20.02;75.67
35226;BME280;21813;49.686;21.766;2022-08-04T07:04:19;98767.53;;;19.97;75.62
35226;BME280;21813;49.686;21.766;2022-08-04T07:06:45;98773.25;;;20.09;73.47
35226;BME280;21813;49.686;21.766;2022-08-04T07:12:41;98765.25;;;20.25;72.92
35226;BME280;21813;49.686;21.766;2022-08-04T07:15:09;98762.91;;;20.30;72.93
35226;BME280;21813;49.686;21.766;2022-08-04T07:17:39;98776.72;;;20.48;72.90
35226;BME280;21813;49.686;21.766;2022-08-04T07:26:08;98773.25;;;20.70;72.03
35226;BME280;21813;49.686;21.766;2022-08-04T07:29:16;98764.56;;;20.77;71.38
35226;BME280;21813;49.686;21.766;2022-08-04T07:38:12;98777.28;;;21.27;67.39
35226;BME280;21813;49.686;21.766;2022-08-04T07:40:46;98752.59;;;21.26;66.94
35226;BME280;21813;49.686;21.766;2022-08-04T07:43:15;98763.75;;;21.51;66.31
35226;BME280;21813;49.686;21.766;2022-08-04T07:45:42;98778.41;;;21.76;66.51
35226;BME280;21813;49.686;21.766;2022-08-04T07:48:09;98761.84;;;21.89;65.81
35226;BME280;21813;49.686;21.766;2022-08-04T07:50:42;98767.44;;;22.09;65.30
35226;BME280;21813;49.686;21.766;2022-08-04T07:56:52;98756.41;;;22.47;63.88
35226;BME280;21813;49.686;21.766;2022-08-04T07:59:18;98749.59;;;22.60;63.75
35226;BME280;21813;49.686;21.766;2022-08-04T08:01:45;98758.50;;;22.88;62.39
35226;BME280;21813;49.686;21.766;2022-08-04T08:04:12;98754.53;;;23.05;59.94
35226;BME280;21813;49.686;21.766;2022-08-04T08:06:41;98749.91;;;23.14;57.83
35226;BME280;21813;49.686;21.766;2022-08-04T08:09:15;98736.69;;;23.27;55.99
35226;BME280;21813;49.686;21.766;2022-08-04T08:11:45;98750.16;;;23.47;56.46
35226;BME280;21813;49.686;21.766;2022-08-04T08:14:12;98758.72;;;23.70;56.70
35226;BME280;21813;49.686;21.766;2022-08-04T08:16:38;98745.63;;;23.75;54.15
35226;BME280;21813;49.686;21.766;2022-08-04T08:19:05;98752.66;;;23.89;54.35
35226;BME280;21813;49.686;21.766;2022-08-04T08:21:32;98753.50;;;23.96;51.38
35226;BME280;21813;49.686;21.766;2022-08-04T08:23:58;98736.88;;;23.81;52.62
35226;BME280;21813;49.686;21.766;2022-08-04T08:26:25;98747.56;;;23.94;53.83
35226;BME280;21813;49.686;21.766;2022-08-04T08:28:52;98751.06;;;24.01;54.34
35226;BME280;21813;49.686;21.766;2022-08-04T08:31:18;98739.63;;;24.07;54.49
35226;BME280;21813;49.686;21.766;2022-08-04T08:33:47;98741.72;;;24.18;53.93
35226;BME280;21813;49.686;21.766;2022-08-04T08:41:55;98761.00;;;24.20;52.21
35226;BME280;21813;49.686;21.766;2022-08-04T09:10:11;98758.88;;;24.83;49.80
35226;BME280;21813;49.686;21.766;2022-08-04T09:12:56;98757.50;;;24.94;50.27
35226;BME280;21813;49.686;21.766;2022-08-04T09:15:56;98760.59;;;25.04;50.35
35226;BME280;21813;49.686;21.766;2022-08-04T09:18:36;98758.09;;;25.16;50.03
35226;BME280;21813;49.686;21.766;2022-08-04T09:21:23;98741.69;;;25.19;51.03
35226;BME280;21813;49.686;21.766;2022-08-04T09:24:02;98746.00;;;25.33;50.14
35226;BME280;21813;49.686;21.766;2022-08-04T09:29:33;98751.34;;;25.33;49.37
35226;BME280;21813;49.686;21.766;2022-08-04T09:38:01;98727.09;;;25.41;48.83
35226;BME280;21813;49.686;21.766;2022-08-04T09:44:42;98729.13;;;25.45;48.88
35226;BME280;21813;49.686;21.766;2022-08-04T09:50:38;98734.69;;;25.57;47.16
35226;BME280;21813;49.686;21.766;2022-08-04T09:53:35;98733.25;;;25.61;45.99
35226;BME280;21813;49.686;21.766;2022-08-04T09:56:13;98737.97;;;25.59;46.19
35226;BME280;21813;49.686;21.766;2022-08-04T09:58:56;98722.16;;;25.51;46.44
35226;BME280;21813;49.686;21.766;2022-08-04T10:01:27;98711.66;;;25.49;47.31
35226;BME280;21813;49.686;21.766;2022-08-04T10:04:09;98705.34;;;25.57;46.38
35226;BME280;21813;49.686;21.766;2022-08-04T10:10:33;98728.25;;;25.84;44.21
35226;BME280;21813;49.686;21.766;2022-08-04T10:21:11;98731.09;;;25.89;43.03
35226;BME280;21813;49.686;21.766;2022-08-04T10:26:59;98707.75;;;25.65;42.43
35226;BME280;21813;49.686;21.766;2022-08-04T10:29:45;98692.97;;;25.49;42.90
35226;BME280;21813;49.686;21.766;2022-08-04T10:32:17;98727.91;;;25.61;42.86
35226;BME280;21813;49.686;21.766;2022-08-04T10:41:02;98695.09;;;25.28;43.46
35226;BME280;21813;49.686;21.766;2022-08-04T10:44:14;98709.03;;;25.43;42.75
35226;BME280;21813;49.686;21.766;2022-08-04T10:46:46;98696.72;;;25.42;43.11
35226;BME280;21813;49.686;21.766;2022-08-04T10:49:36;98695.88;;;25.41;44.33
35226;BME280;21813;49.686;21.766;2022-08-04T10:57:03;98701.16;;;25.74;44.75
35226;BME280;21813;49.686;21.766;2022-08-04T11:02:41;98710.09;;;26.00;44.17
35226;BME280;21813;49.686;21.766;2022-08-04T11:05:30;98708.84;;;26.02;44.56
35226;BME280;21813;49.686;21.766;2022-08-04T11:08:06;98687.50;;;25.95;41.83
35226;BME280;21813;49.686;21.766;2022-08-04T11:13:56;98713.31;;;26.15;41.94
35226;BME280;21813;49.686;21.766;2022-08-04T11:16:57;98708.81;;;26.09;41.59
35226;BME280;21813;49.686;21.766;2022-08-04T11:22:36;98680.94;;;25.91;42.91
35226;BME280;21813;49.686;21.766;2022-08-04T11:25:18;98714.59;;;26.06;42.46
35226;BME280;21813;49.686;21.766;2022-08-04T11:28:02;98696.91;;;26.05;41.67
35226;BME280;21813;49.686;21.766;2022-08-04T11:30:45;98677.69;;;25.89;39.36
35226;BME280;21813;49.686;21.766;2022-08-04T11:36:14;98695.75;;;25.94;39.51
35226;BME280;21813;49.686;21.766;2022-08-04T11:42:00;98663.63;;;26.07;38.93
35226;BME280;21813;49.686;21.766;2022-08-04T11:44:50;98665.38;;;27.07;37.27
35226;BME280;21813;49.686;21.766;2022-08-04T11:47:24;98676.09;;;27.98;36.98
35226;BME280;21813;49.686;21.766;2022-08-04T11:50:09;98655.41;;;28.47;35.17
35226;BME280;21813;49.686;21.766;2022-08-04T11:52:41;98664.72;;;29.09;35.37
35226;BME280;21813;49.686;21.766;2022-08-04T11:55:09;98682.94;;;29.07;35.81
35226;BME280;21813;49.686;21.766;2022-08-04T11:57:37;98646.84;;;30.18;32.28
35226;BME280;21813;49.686;21.766;2022-08-04T12:00:07;98675.72;;;30.22;32.06
35226;BME280;21813;49.686;21.766;2022-08-04T12:05:26;98639.59;;;29.50;32.72
35226;BME280;21813;49.686;21.766;2022-08-04T12:11:08;98663.41;;;29.58;34.84
35226;BME280;21813;49.686;21.766;2022-08-04T12:14:03;98662.38;;;29.88;34.69
35226;BME280;21813;49.686;21.766;2022-08-04T12:16:41;98650.25;;;29.10;35.94
35226;BME280;21813;49.686;21.766;2022-08-04T12:19:25;98659.34;;;28.86;36.19
35226;BME280;21813;49.686;21.766;2022-08-04T12:21:57;98657.94;;;29.07;35.03
35226;BME280;21813;49.686;21.766;2022-08-04T12:24:26;98654.69;;;29.91;34.79
35226;BME280;21813;49.686;21.766;2022-08-04T12:26:57;98653.41;;;30.39;32.08
35226;BME280;21813;49.686;21.766;2022-08-04T12:29:26;98639.09;;;30.50;32.24
35226;BME280;21813;49.686;21.766;2022-08-04T12:32:17;98650.25;;;31.47;30.63
35226;BME280;21813;49.686;21.766;2022-08-04T12:34:53;98651.38;;;31.12;31.38
35226;BME280;21813;49.686;21.766;2022-08-04T12:37:50;98637.16;;;31.34;30.72
35226;BME280;21813;49.686;21.766;2022-08-04T12:40:26;98630.56;;;30.24;32.92
35226;BME280;21813;49.686;21.766;2022-08-04T12:43:05;98627.44;;;30.16;32.96
35226;BME280;21813;49.686;21.766;2022-08-04T12:45:34;98626.53;;;30.72;31.22
35226;BME280;21813;49.686;21.766;2022-08-04T12:48:03;98639.22;;;30.43;32.42
35226;BME280;21813;49.686;21.766;2022-08-04T12:50:31;98640.75;;;29.54;34.03
35226;BME280;21813;49.686;21.766;2022-08-04T12:52:58;98637.53;;;29.06;33.99
35226;BME280;21813;49.686;21.766;2022-08-04T12:55:27;98632.59;;;29.14;33.32
35226;BME280;21813;49.686;21.766;2022-08-04T12:57:54;98635.44;;;29.71;34.09
35226;BME280;21813;49.686;21.766;2022-08-04T13:00:43;98630.56;;;30.24;32.76
35226;BME280;21813;49.686;21.766;2022-08-04T13:03:14;98629.47;;;30.54;31.27
35226;BME280;21813;49.686;21.766;2022-08-04T13:05:42;98621.34;;;29.64;32.58
35226;BME280;21813;49.686;21.766;2022-08-04T13:08:10;98613.19;;;29.47;33.69
35226;BME280;21813;49.686;21.766;2022-08-04T13:10:39;98616.03;;;29.69;33.18
35226;BME280;21813;49.686;21.766;2022-08-04T13:13:18;98613.06;;;29.54;32.36
35226;BME280;21813;49.686;21.766;2022-08-04T13:15:58;98616.63;;;29.71;32.95
35226;BME280;21813;49.686;21.766;2022-08-04T13:18:53;98613.44;;;29.85;33.25
35226;BME280;21813;49.686;21.766;2022-08-04T13:25:02;98613.09;;;29.82;32.55
35226;BME280;21813;49.686;21.766;2022-08-04T13:27:28;98604.44;;;29.28;33.49
35226;BME280;21813;49.686;21.766;2022-08-04T13:29:55;98606.13;;;29.06;34.06
35226;BME280;21813;49.686;21.766;2022-08-04T13:32:23;98601.94;;;28.75;35.79
35226;BME280;21813;49.686;21.766;2022-08-04T13:34:51;98591.88;;;28.47;36.85
35226;BME280;21813;49.686;21.766;2022-08-04T13:37:21;98603.13;;;28.26;37.07
35226;BME280;21813;49.686;21.766;2022-08-04T13:39:50;98593.25;;;27.97;37.76
35226;BME280;21813;49.686;21.766;2022-08-04T13:42:17;98603.38;;;27.95;38.19
35226;BME280;21813;49.686;21.766;2022-08-04T13:44:48;98595.38;;;27.77;38.24
35226;BME280;21813;49.686;21.766;2022-08-04T13:50:45;98597.63;;;27.61;38.58
35226;BME280;21813;49.686;21.766;2022-08-04T13:53:16;98562.69;;;27.38;38.71
35226;BME280;21813;49.686;21.766;2022-08-04T13:55:45;98590.13;;;27.52;38.90
35226;BME280;21813;49.686;21.766;2022-08-04T13:58:23;98588.28;;;27.52;38.45
35226;BME280;21813;49.686;21.766;2022-08-04T14:00:59;98592.47;;;27.48;38.62
35226;BME280;21813;49.686;21.766;2022-08-04T14:03:35;98597.81;;;27.48;39.54
35226;BME280;21813;49.686;21.766;2022-08-04T14:06:19;98590.06;;;27.40;38.87
35226;BME280;21813;49.686;21.766;2022-08-04T14:09:07;98578.75;;;27.20;39.48
35226;BME280;21813;49.686;21.766;2022-08-04T14:11:40;98588.59;;;27.26;39.32
35226;BME280;21813;49.686;21.766;2022-08-04T14:14:27;98594.59;;;27.21;40.14
35226;BME280;21813;49.686;21.766;2022-08-04T14:16:58;98582.94;;;27.16;40.79
35226;BME280;21813;49.686;21.766;2022-08-04T14:19:26;98560.50;;;26.99;40.53
35226;BME280;21813;49.686;21.766;2022-08-04T14:21:52;98569.50;;;27.04;40.79
35226;BME280;21813;49.686;21.766;2022-08-04T14:24:28;98578.47;;;27.10;40.54
35226;BME280;21813;49.686;21.766;2022-08-04T14:26:58;98578.41;;;27.16;40.14
35226;BME280;21813;49.686;21.766;2022-08-04T14:29:35;98560.34;;;27.12;39.54
35226;BME280;21813;49.686;21.766;2022-08-04T14:32:04;98561.97;;;27.13;39.38
35226;BME280;21813;49.686;21.766;2022-08-04T14:34:37;98566.88;;;27.16;39.91
35226;BME280;21813;49.686;21.766;2022-08-04T14:37:08;98586.56;;;27.21;40.06
35226;BME280;21813;49.686;21.766;2022-08-04T14:39:43;98562.50;;;27.03;39.11
35226;BME280;21813;49.686;21.766;2022-08-04T14:42:12;98564.66;;;27.13;38.81
35226;BME280;21813;49.686;21.766;2022-08-04T14:44:56;98564.03;;;27.11;39.33
35226;BME280;21813;49.686;21.766;2022-08-04T14:47:43;98568.06;;;27.20;38.96
35226;BME280;21813;49.686;21.766;2022-08-04T14:50:11;98563.75;;;27.19;39.20
35226;BME280;21813;49.686;21.766;2022-08-04T14:52:37;98555.59;;;27.14;39.86
35226;BME280;21813;49.686;21.766;2022-08-04T14:55:22;98562.69;;;27.20;39.69
35226;BME280;21813;49.686;21.766;2022-08-04T14:57:52;98551.47;;;27.11;39.28
35226;BME280;21813;49.686;21.766;2022-08-04T15:00:26;98543.09;;;27.08;39.24
35226;BME280;21813;49.686;21.766;2022-08-04T15:03:01;98549.63;;;27.12;39.26
35226;BME280;21813;49.686;21.766;2022-08-04T15:05:30;98566.81;;;27.22;39.60
35226;BME280;21813;49.686;21.766;2022-08-04T15:07:58;98559.88;;;27.15;39.40
35226;BME280;21813;49.686;21.766;2022-08-04T15:10:24;98545.97;;;27.06;40.01
35226;BME280;21813;49.686;21.766;2022-08-04T15:12:50;98546.22;;;27.05;40.63
35226;BME280;21813;49.686;21.766;2022-08-04T15:15:22;98548.00;;;27.11;40.44
35226;BME280;21813;49.686;21.766;2022-08-04T15:20:41;98550.81;;;27.16;39.54
35226;BME280;21813;49.686;21.766;2022-08-04T15:23:24;98550.44;;;27.12;39.71
35226;BME280;21813;49.686;21.766;2022-08-04T15:26:06;98541.81;;;27.10;39.76
35226;BME280;21813;49.686;21.766;2022-08-04T15:28:34;98529.09;;;27.06;38.90
35226;BME280;21813;49.686;21.766;2022-08-04T15:31:10;98540.09;;;27.16;38.36
35226;BME280;21813;49.686;21.766;2022-08-04T15:33:43;98544.88;;;27.14;38.87
35226;BME280;21813;49.686;21.766;2022-08-04T15:36:21;98545.25;;;27.17;38.66
35226;BME280;21813;49.686;21.766;2022-08-04T15:39:32;98522.94;;;27.05;39.53
35226;BME280;21813;49.686;21.766;2022-08-04T15:47:16;98548.00;;;27.11;39.87
35226;BME280;21813;49.686;21.766;2022-08-04T15:49:43;98535.88;;;27.08;39.57
35226;BME280;21813;49.686;21.766;2022-08-04T15:52:12;98526.28;;;27.01;39.71
35226;BME280;21813;49.686;21.766;2022-08-04T15:54:42;98520.94;;;27.01;39.52
35226;BME280;21813;49.686;21.766;2022-08-04T15:57:09;98543.81;;;27.15;39.67
35226;BME280;21813;49.686;21.766;2022-08-04T15:59:54;98541.75;;;27.17;39.02
35226;BME280;21813;49.686;21.766;2022-08-04T16:07:59;98539.75;;;27.12;39.60
35226;BME280;21813;49.686;21.766;2022-08-04T16:15:39;98540.78;;;27.11;40.44
35226;BME280;21813;49.686;21.766;2022-08-04T16:18:12;98524.22;;;27.03;41.03
35226;BME280;21813;49.686;21.766;2022-08-04T16:21:45;98541.44;;;27.07;40.59
35226;BME280;21813;49.686;21.766;2022-08-04T16:26:47;98536.09;;;27.07;41.06
35226;BME280;21813;49.686;21.766;2022-08-04T16:29:42;98538.19;;;27.05;40.70
35226;BME280;21813;49.686;21.766;2022-08-04T16:32:20;98517.97;;;26.91;41.00
35226;BME280;21813;49.686;21.766;2022-08-04T16:35:03;98538.63;;;27.02;41.63
35226;BME280;21813;49.686;21.766;2022-08-04T16:37:53;98542.44;;;26.94;41.83
35226;BME280;21813;49.686;21.766;2022-08-04T16:40:34;98520.91;;;26.82;41.98
35226;BME280;21813;49.686;21.766;2022-08-04T16:43:15;98534.47;;;26.88;42.19
35226;BME280;21813;49.686;21.766;2022-08-04T16:46:10;98539.59;;;26.89;42.39
35226;BME280;21813;49.686;21.766;2022-08-04T16:48:36;98510.06;;;26.77;42.30
35226;BME280;21813;49.686;21.766;2022-08-04T16:53:44;98531.03;;;26.80;42.68
35226;BME280;21813;49.686;21.766;2022-08-04T16:56:17;98526.09;;;26.77;42.74
35226;BME280;21813;49.686;21.766;2022-08-04T16:58:55;98524.69;;;26.75;42.94
35226;BME280;21813;49.686;21.766;2022-08-04T17:01:53;98528.25;;;26.69;43.48
35226;BME280;21813;49.686;21.766;2022-08-04T17:04:33;98519.84;;;26.65;43.79
35226;BME280;21813;49.686;21.766;2022-08-04T17:07:09;98513.97;;;26.57;43.87
35226;BME280;21813;49.686;21.766;2022-08-04T17:09:35;98519.53;;;26.55;44.15
35226;BME280;21813;49.686;21.766;2022-08-04T17:12:07;98541.09;;;26.60;44.10
35226;BME280;21813;49.686;21.766;2022-08-04T17:14:33;98523.13;;;26.49;44.87
35226;BME280;21813;49.686;21.766;2022-08-04T17:17:21;98538.72;;;26.52;44.74
35226;BME280;21813;49.686;21.766;2022-08-04T17:19:53;98533.50;;;26.39;45.35
35226;BME280;21813;49.686;21.766;2022-08-04T17:22:19;98523.50;;;26.28;45.55
35226;BME280;21813;49.686;21.766;2022-08-04T17:24:45;98538.50;;;26.29;45.32
35226;BME280;21813;49.686;21.766;2022-08-04T17:27:25;98532.34;;;26.28;45.83
35226;BME280;21813;49.686;21.766;2022-08-04T17:29:57;98532.81;;;26.19;46.04
35226;BME280;21813;49.686;21.766;2022-08-04T17:32:23;98514.03;;;26.01;46.37
35226;BME280;21813;49.686;21.766;2022-08-04T17:35:03;98548.47;;;26.15;46.55
35226;BME280;21813;49.686;21.766;2022-08-04T17:37:47;98520.66;;;25.98;46.70
35226;BME280;21813;49.686;21.766;2022-08-04T17:40:19;98538.69;;;26.03;47.30
35226;BME280;21813;49.686;21.766;2022-08-04T17:42:45;98526.47;;;25.88;47.39
35226;BME280;21813;49.686;21.766;2022-08-04T17:45:17;98512.59;;;25.73;47.49
35226;BME280;21813;49.686;21.766;2022-08-04T17:47:55;98518.38;;;25.70;47.70
35226;BME280;21813;49.686;21.766;2022-08-04T17:50:33;98526.38;;;25.70;47.74
35226;BME280;21813;49.686;21.766;2022-08-04T17:53:54;98526.22;;;25.65;48.20
35226;BME280;21813;49.686;21.766;2022-08-04T17:56:34;98531.16;;;25.62;48.61
35226;BME280;21813;49.686;21.766;2022-08-04T17:59:20;98522.78;;;25.51;48.59
35226;BME280;21813;49.686;21.766;2022-08-04T18:07:16;98512.81;;;25.27;49.45
35226;BME280;21813;49.686;21.766;2022-08-04T18:09:53;98539.31;;;25.29;50.27
35226;BME280;21813;49.686;21.766;2022-08-04T18:12:35;98537.28;;;25.18;50.30
35226;BME280;21813;49.686;21.766;2022-08-04T18:15:07;98537.09;;;25.13;50.99
35226;BME280;21813;49.686;21.766;2022-08-04T18:17:43;98544.91;;;25.07;51.35
35226;BME280;21813;49.686;21.766;2022-08-04T18:20:23;98556.84;;;24.98;51.68
35226;BME280;21813;49.686;21.766;2022-08-04T18:22:51;98553.41;;;24.91;51.94
35226;BME280;21813;49.686;21.766;2022-08-04T18:25:19;98551.56;;;24.72;52.55
35226;BME280;21813;49.686;21.766;2022-08-04T18:27:53;98551.56;;;24.65;52.51
35226;BME280;21813;49.686;21.766;2022-08-04T18:30:26;98563.25;;;24.58;52.84
35226;BME280;21813;49.686;21.766;2022-08-04T18:32:53;98563.88;;;24.53;52.82
35226;BME280;21813;49.686;21.766;2022-08-04T18:35:32;98553.22;;;24.40;53.26
35226;BME280;21813;49.686;21.766;2022-08-04T18:38:24;98567.38;;;24.41;53.75
35226;BME280;21813;49.686;21.766;2022-08-04T18:41:33;98571.06;;;24.33;54.05